createdAt,value
2023-09-28T00:00:49.166Z,27.00
2023-09-28T00:03:19.775Z,27.00
2023-09-28T00:05:50.784Z,27.03
2023-09-28T00:08:21.694Z,27.05
2023-09-28T00:10:52.865Z,27.07
2023-09-28T00:13:23.490Z,27.08
2023-09-28T00:15:56.737Z,27.10
2023-09-28T00:18:29.922Z,27.11
2023-09-28T00:21:00.630Z,27.10
2023-09-28T00:23:31.824Z,27.11
2023-09-28T00:26:03.237Z,27.08
2023-09-28T00:28:34.166Z,27.11
2023-09-28T00:31:08.487Z,27.11
2023-09-28T00:33:39.400Z,27.11
2023-09-28T00:36:10.000Z,27.13
2023-09-28T00:38:41.003Z,27.13
2023-09-28T00:41:12.633Z,27.16
2023-09-28T00:43:43.665Z,27.25
2023-09-28T00:46:19.249Z,27.22
2023-09-28T00:49:00.152Z,27.25
2023-09-28T00:51:31.137Z,27.28
2023-09-28T00:54:03.632Z,27.32
2023-09-28T00:56:35.041Z,27.36
2023-09-28T00:59:08.213Z,27.44
2023-09-28T01:01:42.392Z,27.47
2023-09-28T01:04:13.209Z,27.49
2023-09-28T01:06:44.064Z,27.63
2023-09-28T01:09:16.215Z,27.58
2023-09-28T01:11:52.200Z,27.60
2023-09-28T01:14:24.028Z,27.63
2023-09-28T01:16:56.603Z,27.68
2023-09-28T01:19:26.147Z,27.67
2023-09-28T01:21:56.932Z,27.72
2023-09-28T01:24:29.887Z,27.74
2023-09-28T01:27:00.790Z,27.71
2023-09-28T01:29:33.110Z,27.73
2023-09-28T01:32:04.808Z,27.74
2023-09-28T01:34:35.843Z,27.81
2023-09-28T01:37:06.582Z,27.82
2023-09-28T01:39:38.963Z,27.80
2023-09-28T01:42:09.379Z,27.79
2023-09-28T01:44:39.941Z,27.90
2023-09-28T01:47:10.597Z,27.87
2023-09-28T01:49:41.409Z,27.86
2023-09-28T01:52:12.463Z,27.83
2023-09-28T01:54:45.935Z,27.67
2023-09-28T01:57:18.206Z,27.61
2023-09-28T01:59:48.776Z,27.54
2023-09-28T02:02:19.564Z,27.57
2023-09-28T02:04:51.061Z,27.44
2023-09-28T02:07:22.939Z,27.29
2023-09-28T02:09:55.208Z,27.30
2023-09-28T02:12:25.749Z,27.28
2023-09-28T02:14:59.224Z,27.27
2023-09-28T02:17:31.699Z,27.36
2023-09-28T02:20:07.069Z,27.30
2023-09-28T02:22:38.060Z,27.30
2023-09-28T02:25:12.435Z,27.32
2023-09-28T02:27:44.051Z,27.32
2023-09-28T02:30:15.868Z,27.32
2023-09-28T02:32:47.624Z,27.40
2023-09-28T02:35:19.300Z,27.43
2023-09-28T02:37:51.433Z,27.42
2023-09-28T02:40:23.906Z,27.36
2023-09-28T02:42:54.743Z,27.36
2023-09-28T02:45:25.435Z,27.42
2023-09-28T02:47:57.030Z,27.38
2023-09-28T02:50:27.536Z,27.37
2023-09-28T02:52:58.972Z,27.37
2023-09-28T02:55:32.397Z,27.37
2023-09-28T02:58:03.879Z,27.39
2023-09-28T03:00:35.513Z,27.42
2023-09-28T03:03:07.556Z,27.45
2023-09-28T03:05:41.057Z,27.39
2023-09-28T03:08:12.464Z,27.36
2023-09-28T03:10:45.836Z,27.33
2023-09-28T03:13:16.682Z,27.44
2023-09-28T03:15:49.837Z,27.45
2023-09-28T03:18:22.653Z,27.49
2023-09-28T03:20:53.870Z,27.51
2023-09-28T03:23:26.728Z,27.61
2023-09-28T03:26:01.295Z,27.70
2023-09-28T03:28:34.497Z,27.84
2023-09-28T03:31:05.036Z,27.95
2023-09-28T03:33:35.819Z,28.03
2023-09-28T03:36:06.567Z,28.12
2023-09-28T03:38:38.116Z,28.14
2023-09-28T03:41:10.501Z,28.21
2023-09-28T03:43:41.127Z,28.25
2023-09-28T03:46:12.107Z,28.32
2023-09-28T03:48:42.960Z,28.29
2023-09-28T03:51:14.267Z,28.30
2023-09-28T03:53:59.019Z,28.25
2023-09-28T03:56:32.116Z,28.34
2023-09-28T03:59:02.947Z,28.29
2023-09-28T04:01:33.720Z,28.37
2023-09-28T04:04:04.741Z,28.38
2023-09-28T04:06:35.504Z,28.37
2023-09-28T04:09:09.711Z,28.36
2023-09-28T04:11:42.164Z,28.37
2023-09-28T04:14:14.093Z,28.40
2023-09-28T04:16:45.472Z,28.43
2023-09-28T04:19:17.578Z,28.41
2023-09-28T04:21:54.191Z,28.48
2023-09-28T04:24:26.301Z,28.54
2023-09-28T04:27:04.000Z,28.54
2023-09-28T04:29:38.276Z,28.57
2023-09-28T04:32:09.796Z,28.59
2023-09-28T04:34:44.129Z,28.53
2023-09-28T04:37:14.879Z,28.51
2023-09-28T04:39:53.476Z,28.54
2023-09-28T04:42:30.533Z,28.37
2023-09-28T04:45:10.629Z,28.28
2023-09-28T04:47:42.140Z,28.20
2023-09-28T04:50:14.945Z,28.23
2023-09-28T04:52:46.344Z,28.34
2023-09-28T04:55:17.298Z,28.32
2023-09-28T04:57:54.317Z,28.36
2023-09-28T05:00:25.127Z,28.39
2023-09-28T05:02:56.584Z,28.42
2023-09-28T05:05:27.533Z,28.45
2023-09-28T05:07:58.454Z,28.48
2023-09-28T05:10:29.394Z,28.57
2023-09-28T05:13:01.715Z,28.55
2023-09-28T05:15:32.794Z,28.56
2023-09-28T05:18:05.231Z,28.47
2023-09-28T05:20:36.825Z,28.49
2023-09-28T05:23:07.814Z,28.39
2023-09-28T05:25:39.996Z,28.37
2023-09-28T05:28:14.052Z,28.38
2023-09-28T05:30:45.067Z,28.40
2023-09-28T05:33:15.981Z,28.39
2023-09-28T05:35:50.974Z,28.40
2023-09-28T05:38:23.508Z,28.45
2023-09-28T05:40:54.259Z,28.47
2023-09-28T05:43:27.521Z,28.48
2023-09-28T05:45:59.234Z,28.51
2023-09-28T05:48:30.409Z,28.59
2023-09-28T05:51:01.426Z,28.65
2023-09-28T05:53:34.985Z,28.66
2023-09-28T05:56:08.374Z,28.69
2023-09-28T05:58:39.788Z,28.68
2023-09-28T06:01:15.995Z,28.73
2023-09-28T06:03:47.106Z,28.81
2023-09-28T06:06:18.301Z,28.89
2023-09-28T06:08:49.682Z,28.90
2023-09-28T06:11:23.898Z,28.81
2023-09-28T06:14:07.552Z,28.70
2023-09-28T06:16:39.887Z,28.71
2023-09-28T06:19:10.998Z,28.71
2023-09-28T06:21:41.995Z,28.72
2023-09-28T06:24:16.706Z,28.79
2023-09-28T06:26:47.546Z,28.87
2023-09-28T06:29:28.357Z,28.88
2023-09-28T06:32:00.073Z,28.92
2023-09-28T06:34:30.675Z,28.88
2023-09-28T06:37:03.769Z,28.79
2023-09-28T06:39:35.644Z,28.71
2023-09-28T06:42:22.408Z,28.72
2023-09-28T06:45:00.279Z,28.66
2023-09-28T06:47:46.551Z,28.59
2023-09-28T06:50:27.613Z,28.60
2023-09-28T06:53:01.443Z,28.65
2023-09-28T06:55:32.923Z,28.60
2023-09-28T06:58:08.825Z,28.69
2023-09-28T07:00:41.594Z,28.74
2023-09-28T07:03:15.107Z,28.77
2023-09-28T07:05:48.180Z,28.77
2023-09-28T07:08:20.182Z,28.72
2023-09-28T07:10:52.599Z,28.76
2023-09-28T07:13:24.382Z,28.75
2023-09-28T07:16:01.203Z,28.72
2023-09-28T07:18:31.939Z,28.77
2023-09-28T07:21:03.151Z,28.78
2023-09-28T07:23:34.340Z,28.86
2023-09-28T07:26:04.975Z,28.86
2023-09-28T07:28:35.655Z,28.86
2023-09-28T07:31:07.825Z,28.89
2023-09-28T07:33:40.079Z,29.02
2023-09-28T07:36:12.111Z,29.15
2023-09-28T07:38:43.760Z,29.16
2023-09-28T07:41:14.610Z,29.19
2023-09-28T07:43:45.069Z,29.16
2023-09-28T07:46:21.086Z,29.18
2023-09-28T07:48:51.614Z,29.30
2023-09-28T07:51:23.444Z,29.21
2023-09-28T07:53:56.412Z,29.20
2023-09-28T07:56:27.638Z,29.15
2023-09-28T07:59:02.564Z,29.15
2023-09-28T08:01:42.912Z,29.14
2023-09-28T08:04:14.352Z,29.24
2023-09-28T08:06:48.080Z,29.27
2023-09-28T08:09:19.002Z,29.23
2023-09-28T08:11:53.456Z,29.30
2023-09-28T08:14:24.397Z,29.37
2023-09-28T08:16:57.409Z,29.35
2023-09-28T08:19:29.165Z,29.32
2023-09-28T08:22:02.162Z,29.40
2023-09-28T08:24:34.462Z,29.51
2023-09-28T08:27:07.034Z,29.60
2023-09-28T08:29:39.996Z,29.67
2023-09-28T08:32:12.851Z,29.65
2023-09-28T08:34:45.329Z,29.59
2023-09-28T08:37:16.313Z,29.65
2023-09-28T08:39:48.580Z,29.75
2023-09-28T08:42:25.360Z,29.86
2023-09-28T08:45:02.648Z,29.86
2023-09-28T08:47:38.713Z,29.90
2023-09-28T08:50:10.858Z,29.88
2023-09-28T08:52:42.171Z,29.90
2023-09-28T08:55:14.916Z,29.92
2023-09-28T08:57:46.227Z,29.96
2023-09-28T09:00:17.666Z,30.03
2023-09-28T09:02:55.073Z,30.02
2023-09-28T09:05:31.780Z,29.99
2023-09-28T09:08:04.705Z,29.96
2023-09-28T09:10:35.541Z,29.97
2023-09-28T09:13:07.717Z,29.93
2023-09-28T09:15:40.165Z,29.85
2023-09-28T09:18:16.257Z,29.81
2023-09-28T09:20:49.378Z,29.79
2023-09-28T09:23:23.382Z,29.70
2023-09-28T09:25:58.587Z,29.54
2023-09-28T09:28:36.164Z,29.54
2023-09-28T09:31:07.397Z,29.42
2023-09-28T09:33:40.868Z,29.38
2023-09-28T09:36:12.117Z,29.36
2023-09-28T09:38:42.982Z,29.30
2023-09-28T09:41:14.519Z,29.24
2023-09-28T09:43:45.503Z,29.26
2023-09-28T09:46:18.287Z,29.17
2023-09-28T09:48:52.325Z,29.13
2023-09-28T09:51:23.976Z,29.21
2023-09-28T09:53:55.802Z,29.06
2023-09-28T09:56:26.762Z,29.11
2023-09-28T09:58:59.910Z,29.08
2023-09-28T10:01:34.852Z,29.00
2023-09-28T10:04:15.283Z,29.05
2023-09-28T10:06:48.139Z,29.10
2023-09-28T10:09:20.309Z,29.02
2023-09-28T10:11:52.741Z,29.00
2023-09-28T10:14:24.196Z,28.98
2023-09-28T10:16:59.065Z,28.96
2023-09-28T10:19:33.298Z,28.91
2023-09-28T10:22:04.134Z,28.91
2023-09-28T10:24:37.711Z,28.81
2023-09-28T10:27:12.953Z,28.81
2023-09-28T10:29:50.090Z,28.77
2023-09-28T10:32:34.506Z,28.83
2023-09-28T10:35:31.932Z,28.74
2023-09-28T10:38:24.889Z,28.72
2023-09-28T10:41:13.234Z,28.73
2023-09-28T10:43:52.229Z,28.74
2023-09-28T10:46:26.655Z,28.72
2023-09-28T10:51:51.476Z,28.55
2023-09-28T10:54:25.419Z,28.55
2023-09-28T10:56:57.199Z,28.51
2023-09-28T10:59:28.470Z,28.49
2023-09-28T11:02:02.178Z,28.50
2023-09-28T11:04:48.037Z,28.52
2023-09-28T11:07:23.889Z,28.47
2023-09-28T11:09:56.016Z,28.44
2023-09-28T11:12:34.096Z,28.50
2023-09-28T11:15:06.394Z,28.42
2023-09-28T11:17:40.398Z,28.47
2023-09-28T11:20:15.444Z,28.48
2023-09-28T11:22:48.443Z,28.40
2023-09-28T11:25:39.123Z,28.40
2023-09-28T11:28:15.118Z,28.40
2023-09-28T11:30:49.947Z,28.28
2023-09-28T11:33:26.338Z,28.28
2023-09-28T11:35:57.319Z,28.22
2023-09-28T11:38:31.288Z,28.23
2023-09-28T11:41:06.313Z,28.13
2023-09-28T11:43:50.486Z,28.06
2023-09-28T11:46:28.797Z,27.98
2023-09-28T11:49:09.210Z,27.97
2023-09-28T11:51:41.936Z,28.05
2023-09-28T11:54:28.122Z,28.03
2023-09-28T11:57:01.322Z,28.03
2023-09-28T11:59:33.965Z,28.02
2023-09-28T12:05:03.343Z,27.95
2023-09-28T12:07:36.702Z,27.93
2023-09-28T12:10:11.758Z,27.99
2023-09-28T12:12:46.256Z,28.03
2023-09-28T12:15:19.642Z,28.00
2023-09-28T12:17:51.382Z,28.02
2023-09-28T12:20:25.613Z,28.01
2023-09-28T12:23:00.196Z,28.00
2023-09-28T12:25:36.791Z,27.99
2023-09-28T12:28:13.275Z,28.00
2023-09-28T12:30:49.077Z,28.04
2023-09-28T12:33:20.014Z,28.00
2023-09-28T12:35:51.464Z,28.01
2023-09-28T12:38:23.299Z,28.04
2023-09-28T12:40:59.648Z,28.08
2023-09-28T12:43:32.018Z,28.13
2023-09-28T12:46:04.201Z,28.09
2023-09-28T12:48:36.097Z,28.10
2023-09-28T12:51:07.924Z,28.08
2023-09-28T12:53:41.849Z,28.02
2023-09-28T12:56:16.401Z,27.95
2023-09-28T12:58:48.480Z,27.88
2023-09-28T13:01:20.282Z,27.83
2023-09-28T13:03:55.092Z,27.87
2023-09-28T13:06:29.465Z,27.77
2023-09-28T13:09:09.484Z,27.81
2023-09-28T13:11:42.332Z,27.80
2023-09-28T13:14:21.805Z,27.77
2023-09-28T13:16:52.934Z,27.71
2023-09-28T13:19:28.088Z,27.72
2023-09-28T13:22:02.177Z,27.70
2023-09-28T13:24:35.849Z,27.63
2023-09-28T13:27:15.306Z,27.61
2023-09-28T13:29:45.985Z,27.64
2023-09-28T13:32:17.949Z,27.63
2023-09-28T13:34:50.583Z,27.59
2023-09-28T13:37:21.837Z,27.65
2023-09-28T13:39:52.529Z,27.60
2023-09-28T13:42:32.041Z,27.57
2023-09-28T13:45:03.990Z,27.56
2023-09-28T13:47:40.239Z,27.57
2023-09-28T13:50:13.813Z,27.64
2023-09-28T13:52:45.612Z,27.57
2023-09-28T13:55:22.692Z,27.54
2023-09-28T13:57:58.667Z,27.58
2023-09-28T14:00:48.859Z,27.56
2023-09-28T14:03:22.080Z,27.52
2023-09-28T14:05:58.533Z,27.51
2023-09-28T14:08:31.596Z,27.50
2023-09-28T14:11:03.967Z,27.50
2023-09-28T14:13:40.310Z,27.48
2023-09-28T14:16:11.240Z,27.46
2023-09-28T14:18:45.104Z,27.46
2023-09-28T14:21:16.020Z,27.45
2023-09-28T14:23:49.018Z,27.47
2023-09-28T14:26:22.564Z,27.47
2023-09-28T14:28:56.883Z,27.45
2023-09-28T14:31:27.545Z,27.47
2023-09-28T14:33:58.676Z,27.47
2023-09-28T14:36:30.352Z,27.46
2023-09-28T14:39:01.974Z,27.48
2023-09-28T14:41:32.715Z,27.46
2023-09-28T14:44:08.291Z,27.47
2023-09-28T14:46:38.873Z,27.59
2023-09-28T14:49:09.364Z,27.55
2023-09-28T14:51:40.824Z,27.52
2023-09-28T14:54:12.990Z,27.51
2023-09-28T14:56:46.374Z,27.51
2023-09-28T14:59:18.724Z,27.53
2023-09-28T15:01:51.888Z,27.61
2023-09-28T15:04:28.607Z,27.61
2023-09-28T15:07:01.103Z,27.60
2023-09-28T15:09:32.307Z,27.54
2023-09-28T15:12:08.062Z,27.50
2023-09-28T15:14:43.366Z,27.47
2023-09-28T15:17:16.448Z,27.49
2023-09-28T15:19:48.408Z,27.42
2023-09-28T15:22:21.366Z,27.36
2023-09-28T15:24:55.106Z,27.32
2023-09-28T15:27:25.811Z,27.35
2023-09-28T15:29:58.075Z,27.38
2023-09-28T15:32:29.747Z,27.29
2023-09-28T15:35:02.486Z,27.38
2023-09-28T15:37:33.954Z,27.28
2023-09-28T15:40:07.390Z,27.26
2023-09-28T15:42:41.044Z,27.28
2023-09-28T15:45:18.961Z,27.18
2023-09-28T15:47:50.502Z,27.11
2023-09-28T15:50:27.094Z,27.08
2023-09-28T15:53:02.612Z,27.10
2023-09-28T15:55:34.849Z,27.08
2023-09-28T15:58:09.536Z,27.06
2023-09-28T16:00:42.015Z,27.11
2023-09-28T16:03:15.649Z,27.10
2023-09-28T16:05:50.047Z,27.09
2023-09-28T16:08:28.882Z,27.06
2023-09-28T16:11:01.028Z,27.09
2023-09-28T16:13:34.736Z,27.05
2023-09-28T16:16:07.735Z,27.02
2023-09-28T16:18:40.578Z,27.01
2023-09-28T16:21:15.308Z,26.98
2023-09-28T16:23:48.707Z,26.98
2023-09-28T16:26:20.884Z,26.99
2023-09-28T16:28:51.933Z,26.98
2023-09-28T16:31:27.757Z,26.97
2023-09-28T16:33:59.853Z,26.97
2023-09-28T16:36:30.542Z,26.96
2023-09-28T16:39:01.343Z,26.97
2023-09-28T16:41:32.151Z,26.99
2023-09-28T16:44:03.054Z,27.01
2023-09-28T16:46:38.960Z,27.00
2023-09-28T16:49:10.701Z,27.02
2023-09-28T16:51:41.504Z,27.01
2023-09-28T16:54:16.075Z,27.04
2023-09-28T16:56:51.202Z,27.04
2023-09-28T16:59:22.207Z,27.04
2023-09-28T17:01:56.118Z,27.05
2023-09-28T17:04:30.439Z,27.08
2023-09-28T17:07:01.608Z,27.08
2023-09-28T17:09:33.776Z,27.09
2023-09-28T17:12:07.560Z,27.08
2023-09-28T17:14:39.592Z,27.08
2023-09-28T17:17:13.446Z,27.10
2023-09-28T17:19:50.322Z,27.11
2023-09-28T17:22:21.729Z,27.12
2023-09-28T17:24:52.193Z,27.11
2023-09-28T17:27:23.583Z,27.10
2023-09-28T17:29:57.522Z,27.11
2023-09-28T17:32:29.747Z,27.11
2023-09-28T17:35:00.899Z,27.12
2023-09-28T17:37:32.284Z,27.14
2023-09-28T17:40:06.470Z,27.15
2023-09-28T17:42:39.774Z,27.13
2023-09-28T17:45:15.360Z,27.12
2023-09-28T17:47:53.992Z,27.14
2023-09-28T17:50:26.535Z,27.14
2023-09-28T17:52:57.305Z,27.12
2023-09-28T17:55:29.480Z,27.12
2023-09-28T17:57:59.944Z,27.15
2023-09-28T18:00:30.520Z,27.13
2023-09-28T18:03:08.645Z,27.14
2023-09-28T18:05:40.500Z,27.11
2023-09-28T18:08:12.956Z,27.12
2023-09-28T18:10:43.350Z,27.12
2023-09-28T18:13:17.829Z,27.14
2023-09-28T18:15:51.172Z,27.10
2023-09-28T18:18:24.178Z,27.12
2023-09-28T18:20:55.511Z,27.10
2023-09-28T18:23:26.831Z,27.11
2023-09-28T18:25:57.517Z,27.10
2023-09-28T18:28:29.653Z,27.10
2023-09-28T18:31:01.229Z,27.12
2023-09-28T18:33:34.105Z,27.19
2023-09-28T18:36:04.824Z,27.14
2023-09-28T18:38:35.671Z,27.12
2023-09-28T18:41:09.908Z,27.15
2023-09-28T18:43:40.655Z,27.12
2023-09-28T18:46:11.254Z,27.12
2023-09-28T18:48:45.221Z,27.13
2023-09-28T18:51:17.685Z,27.15
2023-09-28T18:53:48.373Z,27.17
2023-09-28T18:56:19.473Z,27.14
2023-09-28T18:58:52.471Z,27.13
2023-09-28T19:01:24.428Z,27.13
2023-09-28T19:03:58.557Z,27.12
2023-09-28T19:06:29.465Z,27.12
2023-09-28T19:09:00.328Z,27.14
2023-09-28T19:11:31.271Z,27.13
2023-09-28T19:14:01.982Z,27.15
2023-09-28T19:16:34.439Z,27.15
2023-09-28T19:19:12.632Z,27.18
2023-09-28T19:21:44.129Z,27.16
2023-09-28T19:24:15.776Z,27.14
2023-09-28T19:26:47.488Z,27.14
2023-09-28T19:29:18.226Z,27.14
2023-09-28T19:31:50.401Z,27.17
2023-09-28T19:34:22.845Z,27.15
2023-09-28T19:37:02.538Z,27.18
2023-09-28T19:39:33.860Z,27.17
2023-09-28T19:42:05.964Z,27.17
2023-09-28T19:44:39.404Z,27.16
2023-09-28T19:47:11.674Z,27.16
2023-09-28T19:49:43.990Z,27.17
2023-09-28T19:52:14.922Z,27.13
2023-09-28T19:54:45.692Z,27.13
2023-09-28T19:57:16.298Z,27.13
2023-09-28T19:59:46.768Z,27.12
2023-09-28T20:02:18.391Z,27.13
2023-09-28T20:04:52.160Z,27.14
2023-09-28T20:07:22.988Z,27.13
2023-09-28T20:09:55.063Z,27.13
2023-09-28T20:12:25.699Z,27.13
2023-09-28T20:14:56.359Z,27.13
2023-09-28T20:17:26.973Z,27.16
2023-09-28T20:20:00.002Z,27.13
2023-09-28T20:22:41.638Z,27.13
2023-09-28T20:25:21.215Z,27.14
2023-09-28T20:27:51.962Z,27.14
2023-09-28T20:30:22.484Z,27.13
2023-09-28T20:32:53.573Z,27.12
2023-09-28T20:35:26.619Z,27.12
2023-09-28T20:37:56.374Z,27.14
2023-09-28T20:40:27.169Z,27.12
2023-09-28T20:42:57.806Z,27.15
2023-09-28T20:45:28.557Z,27.18
2023-09-28T20:48:00.831Z,27.15
2023-09-28T20:50:33.556Z,27.14
2023-09-28T20:53:03.183Z,27.14
2023-09-28T20:55:33.905Z,27.14
2023-09-28T20:58:04.571Z,27.12
2023-09-28T21:00:37.600Z,27.15
2023-09-28T21:03:09.291Z,27.14
2023-09-28T21:05:42.080Z,27.15
2023-09-28T21:08:12.049Z,27.16
2023-09-28T21:10:42.606Z,27.15
2023-09-28T21:13:13.425Z,27.16
2023-09-28T21:15:44.225Z,27.17
2023-09-28T21:18:15.231Z,27.18
2023-09-28T21:20:48.315Z,27.16
2023-09-28T21:23:20.527Z,27.17
2023-09-28T21:25:51.448Z,27.17
2023-09-28T21:28:22.481Z,27.15
2023-09-28T21:30:53.316Z,27.17
2023-09-28T21:33:24.039Z,27.16
2023-09-28T21:35:56.773Z,27.17
2023-09-28T21:38:27.901Z,27.17
2023-09-28T21:40:58.886Z,27.14
2023-09-28T21:43:29.781Z,27.13
2023-09-28T21:46:00.824Z,27.12
2023-09-28T21:48:31.797Z,27.13
2023-09-28T21:51:05.771Z,27.12
2023-09-28T21:53:36.566Z,27.15
2023-09-28T21:56:07.535Z,27.12
2023-09-28T21:58:41.897Z,27.12
2023-09-28T22:01:13.750Z,27.12
2023-09-28T22:03:45.570Z,27.11
2023-09-28T22:06:18.802Z,27.11
2023-09-28T22:08:49.680Z,27.13
2023-09-28T22:11:20.515Z,27.17
2023-09-28T22:13:51.474Z,27.15
2023-09-28T22:16:22.268Z,27.14
2023-09-28T22:18:53.183Z,27.14
2023-09-28T22:21:26.188Z,27.13
2023-09-28T22:23:58.066Z,27.14
2023-09-28T22:26:28.817Z,27.12
2023-09-28T22:28:59.365Z,27.14
2023-09-28T22:31:30.590Z,27.17
2023-09-28T22:34:01.497Z,27.19
2023-09-28T22:36:34.229Z,27.17
2023-09-28T22:39:06.522Z,27.19
2023-09-28T22:41:37.550Z,27.18
2023-09-28T22:44:08.704Z,27.26
2023-09-28T22:46:39.435Z,27.26
2023-09-28T22:49:09.935Z,27.23
2023-09-28T22:51:42.016Z,27.22
2023-09-28T22:54:12.551Z,27.20
2023-09-28T22:56:43.248Z,27.19
2023-09-28T22:59:14.463Z,27.17
2023-09-28T23:01:45.377Z,27.14
2023-09-28T23:04:16.082Z,27.16
2023-09-28T23:06:48.259Z,27.14
2023-09-28T23:09:19.935Z,27.12
2023-09-28T23:11:50.847Z,27.11
2023-09-28T23:14:22.065Z,27.10
2023-09-28T23:17:02.797Z,27.10
2023-09-28T23:19:36.522Z,27.09
2023-09-28T23:22:08.864Z,27.13
2023-09-28T23:24:41.052Z,27.14
2023-09-28T23:27:11.919Z,27.11
2023-09-28T23:29:43.889Z,27.11
2023-09-28T23:32:14.632Z,27.13
2023-09-28T23:34:45.547Z,27.12
2023-09-28T23:37:17.928Z,27.10
2023-09-28T23:39:48.832Z,27.11
2023-09-28T23:42:20.476Z,27.09
2023-09-28T23:44:51.435Z,27.09
2023-09-28T23:47:23.437Z,27.09
2023-09-28T23:49:54.468Z,27.10
2023-09-28T23:52:27.265Z,27.09
2023-09-28T23:54:58.299Z,27.10
2023-09-28T23:57:29.685Z,27.10
